Time;durP1;ratioP1;P1;durP2;ratioP2;P2;SDS_P1;SDS_P2;PMS_P1;PMS_P2;Temp;Humidity;BMP_temperature;BMP_pressure;BME280_temperature;BME280_humidity;BME280_pressure;Samples;Min_cycle;Max_cycle;Signal;HPM_P1;HPM_P2
2023/05/13 00:02:31;;;;;;;5.38;2.17;;;;;;;;;;10447038;28;20032;-78
2023/05/13 00:07:31;;;;;;;8.30;2.07;;;;;;;;;;10432977;28;20132;-77
2023/05/13 00:12:31;;;;;;;3.63;1.77;;;;;;;;;;10412177;28;20639;-78
2023/05/13 00:17:32;;;;;;;5.23;1.70;;;;;;;;;;10419514;28;20290;-78
2023/05/13 00:22:32;;;;;;;2.83;1.75;;;;;;;;;;10407385;28;20356;-78
2023/05/13 00:27:33;;;;;;;4.45;1.88;;;;;;;;;;10411662;28;20392;-77
2023/05/13 00:32:33;;;;;;;6.13;2.40;;;;;;;;;;10448405;28;20017;-78
2023/05/13 00:37:33;;;;;;;5.22;2.13;;;;;;;;;;10448020;28;20720;-78
2023/05/13 00:42:33;;;;;;;7.43;2.07;;;;;;;;;;10445302;28;20028;-78
2023/05/13 00:47:34;;;;;;;5.50;2.67;;;;;;;;;;10446455;28;20474;-77
2023/05/13 00:52:36;;;;;;;3.95;2.00;;;;;;;;;;10426410;28;20485;-78
2023/05/13 00:57:36;;;;;;;4.28;2.30;;;;;;;;;;10465508;28;20052;-77
2023/05/13 01:02:42;;;;;;;3.40;2.60;;;;;;;;;;10461199;28;20155;-77
2023/05/13 01:07:58;;;;;;;2.92;2.15;;;;;;;;;;10423448;28;20013;-77
2023/05/13 01:13:00;;;;;;;5.63;2.00;;;;;;;;;;10430490;28;20035;-77
2023/05/13 01:18:09;;;;;;;5.47;2.45;;;;;;;;;;10436288;28;20028;-78
2023/05/13 01:23:10;;;;;;;3.53;2.15;;;;;;;;;;10429113;28;20575;-77
2023/05/13 01:28:10;;;;;;;2.03;1.80;;;;;;;;;;10427522;28;20473;-77
2023/05/13 01:33:11;;;;;;;5.53;1.90;;;;;;;;;;10450251;28;20441;-78
2023/05/13 01:38:12;;;;;;;2.33;1.83;;;;;;;;;;10452646;28;20028;-78
2023/05/13 01:43:13;;;;;;;3.17;1.63;;;;;;;;;;10432641;28;20021;-77
2023/05/13 01:48:13;;;;;;;5.38;2.13;;;;;;;;;;10458322;28;20037;-78
2023/05/13 01:53:13;;;;;;;2.90;1.53;;;;;;;;;;10441068;28;20506;-77
2023/05/13 01:58:14;;;;;;;5.63;2.50;;;;;;;;;;10452045;28;20093;-77
2023/05/13 02:03:14;;;;;;;6.00;2.23;;;;;;;;;;10449532;28;20025;-77
2023/05/13 02:08:14;;;;;;;6.70;2.40;;;;;;;;;;10459569;28;20486;-77
2023/05/13 02:13:15;;;;;;;3.90;2.00;;;;;;;;;;10430980;28;20447;-78
2023/05/13 02:18:15;;;;;;;2.97;2.30;;;;;;;;;;10427405;28;20111;-78
2023/05/13 02:23:16;;;;;;;7.05;2.28;;;;;;;;;;10425665;28;20017;-79
2023/05/13 02:28:16;;;;;;;5.82;2.58;;;;;;;;;;10453539;28;20023;-77
2023/05/13 02:33:17;;;;;;;3.97;2.27;;;;;;;;;;10449281;28;20035;-77
2023/05/13 02:38:17;;;;;;;8.75;2.65;;;;;;;;;;10444105;28;20502;-77
2023/05/13 02:43:18;;;;;;;7.22;2.95;;;;;;;;;;10407498;28;20535;-80
2023/05/13 02:48:18;;;;;;;2.65;2.08;;;;;;;;;;10450995;28;20032;-77
2023/05/13 02:53:18;;;;;;;6.77;2.40;;;;;;;;;;10448969;28;20091;-76
2023/05/13 02:58:19;;;;;;;4.50;2.58;;;;;;;;;;10450282;28;20696;-78
2023/05/13 03:03:19;;;;;;;6.57;3.03;;;;;;;;;;10406198;28;20028;-78
2023/05/13 03:08:20;;;;;;;5.43;3.20;;;;;;;;;;10412278;28;20036;-77
2023/05/13 03:13:20;;;;;;;5.80;2.83;;;;;;;;;;10424136;28;20099;-81
2023/05/13 03:18:20;;;;;;;8.20;3.27;;;;;;;;;;10441917;28;20028;-78
2023/05/13 03:23:20;;;;;;;6.57;3.28;;;;;;;;;;10433138;28;20476;-80
2023/05/13 03:28:21;;;;;;;6.33;3.47;;;;;;;;;;10448938;28;20013;-78
2023/05/13 03:33:21;;;;;;;5.60;4.07;;;;;;;;;;10436129;28;20466;-78
2023/05/13 03:38:22;;;;;;;7.83;3.47;;;;;;;;;;10438783;28;20316;-81
2023/05/13 03:43:22;;;;;;;8.80;4.07;;;;;;;;;;10451651;28;20028;-78
2023/05/13 03:48:22;;;;;;;6.47;3.60;;;;;;;;;;10447001;28;20053;-78
2023/05/13 03:53:22;;;;;;;4.77;3.03;;;;;;;;;;10444442;28;20025;-79
2023/05/13 03:58:23;;;;;;;4.68;3.53;;;;;;;;;;10456939;28;20800;-80
2023/05/13 04:03:23;;;;;;;4.50;3.23;;;;;;;;;;10453872;28;20020;-80
2023/05/13 04:08:23;;;;;;;9.65;3.45;;;;;;;;;;10437772;28;20047;-80
2023/05/13 04:13:24;;;;;;;5.30;3.42;;;;;;;;;;10426084;28;20092;-80
2023/05/13 04:18:24;;;;;;;4.97;3.55;;;;;;;;;;10446201;28;20024;-80
2023/05/13 04:23:24;;;;;;;5.13;3.10;;;;;;;;;;10453668;28;20463;-79
2023/05/13 04:28:25;;;;;;;8.27;3.75;;;;;;;;;;10467285;28;20398;-81
2023/05/13 04:33:26;;;;;;;6.50;2.90;;;;;;;;;;10442422;28;20025;-81
2023/05/13 04:38:26;;;;;;;8.80;3.25;;;;;;;;;;10460746;28;20267;-81
2023/05/13 04:43:26;;;;;;;9.48;4.32;;;;;;;;;;10432709;28;20475;-81
2023/05/13 04:48:27;;;;;;;9.10;3.58;;;;;;;;;;10463732;28;20422;-81
2023/05/13 04:53:27;;;;;;;9.70;5.13;;;;;;;;;;10462936;28;20071;-81
2023/05/13 04:58:27;;;;;;;9.67;3.70;;;;;;;;;;10462817;28;20017;-81
2023/05/13 05:03:28;;;;;;;10.75;4.07;;;;;;;;;;10438505;28;20078;-81
2023/05/13 05:08:28;;;;;;;8.02;3.70;;;;;;;;;;10460908;28;20023;-81
2023/05/13 05:13:28;;;;;;;9.33;4.73;;;;;;;;;;10472777;28;20052;-84
2023/05/13 05:18:29;;;;;;;10.50;4.40;;;;;;;;;;10459392;28;20354;-82
2023/05/13 05:23:52;;;;;;;8.77;4.30;;;;;;;;;;10448391;28;20544;-84
2023/05/13 05:29:07;;;;;;;8.27;4.93;;;;;;;;;;10447498;28;20115;-83
2023/05/13 05:34:08;;;;;;;10.57;4.75;;;;;;;;;;10391984;28;20030;-83
2023/05/13 05:39:08;;;;;;;12.33;4.40;;;;;;;;;;10400483;28;20040;-77
2023/05/13 05:44:08;;;;;;;8.73;4.25;;;;;;;;;;10443282;28;20457;-77
2023/05/13 05:49:09;;;;;;;10.27;4.00;;;;;;;;;;10466807;28;20062;-77
2023/05/13 05:54:09;;;;;;;11.68;4.63;;;;;;;;;;10447336;28;20376;-77
2023/05/13 05:59:10;;;;;;;9.40;4.00;;;;;;;;;;10463831;28;20132;-77
2023/05/13 06:04:10;;;;;;;7.07;4.20;;;;;;;;;;10464743;28;20925;-77
2023/05/13 06:09:10;;;;;;;7.67;4.47;;;;;;;;;;10443801;28;20021;-77
2023/05/13 06:14:10;;;;;;;7.80;4.33;;;;;;;;;;10462010;28;20024;-77
2023/05/13 06:19:11;;;;;;;7.20;3.80;;;;;;;;;;10463313;28;20035;-78
2023/05/13 06:24:11;;;;;;;11.20;5.20;;;;;;;;;;10465916;28;20687;-77
2023/05/13 06:29:11;;;;;;;12.90;4.93;;;;;;;;;;10463140;28;20017;-77
2023/05/13 06:34:15;;;;;;;11.65;5.00;;;;;;;;;;10391109;28;20030;-77
2023/05/13 06:39:16;;;;;;;7.70;3.95;;;;;;;;;;10405539;28;20605;-78
2023/05/13 06:44:17;;;;;;;10.87;4.27;;;;;;;;;;10460773;28;20475;-77
2023/05/13 06:49:17;;;;;;;12.25;4.45;;;;;;;;;;10465888;28;20556;-77
2023/05/13 06:54:17;;;;;;;5.00;2.97;;;;;;;;;;10446582;28;20186;-75
2023/05/13 06:59:19;;;;;;;5.40;3.03;;;;;;;;;;10463991;28;20480;-75
2023/05/13 07:04:19;;;;;;;8.60;3.38;;;;;;;;;;10464549;28;20095;-75
2023/05/13 07:09:19;;;;;;;5.97;3.17;;;;;;;;;;10446462;28;20165;-75
2023/05/13 07:14:20;;;;;;;7.93;2.88;;;;;;;;;;10461486;28;20023;-75
2023/05/13 07:19:20;;;;;;;6.60;2.47;;;;;;;;;;10423262;28;20017;-76
2023/05/13 07:24:21;;;;;;;6.43;2.83;;;;;;;;;;10463408;28;20259;-76
2023/05/13 07:29:21;;;;;;;7.27;3.47;;;;;;;;;;10463739;28;20021;-76
2023/05/13 07:34:21;;;;;;;6.93;2.83;;;;;;;;;;10463471;28;20081;-76
2023/05/13 07:39:22;;;;;;;11.80;4.60;;;;;;;;;;10418634;28;20832;-75
2023/05/13 07:44:22;;;;;;;5.72;4.00;;;;;;;;;;10416886;28;20016;-75
2023/05/13 07:49:23;;;;;;;10.13;3.30;;;;;;;;;;10468274;28;20040;-75
2023/05/13 07:54:23;;;;;;;8.18;2.97;;;;;;;;;;10471812;28;20039;-75
2023/05/13 07:59:23;;;;;;;4.77;2.60;;;;;;;;;;10470790;28;20306;-75
2023/05/13 08:04:24;;;;;;;14.40;3.70;;;;;;;;;;10471879;28;20116;-76
2023/05/13 08:09:25;;;;;;;9.43;3.15;;;;;;;;;;10446249;28;20032;-76
2023/05/13 08:14:25;;;;;;;8.93;2.88;;;;;;;;;;10422946;28;20028;-76
2023/05/13 08:19:25;;;;;;;10.32;3.15;;;;;;;;;;10471448;28;20035;-76
2023/05/13 08:24:25;;;;;;;7.40;3.67;;;;;;;;;;10469460;28;20427;-76
2023/05/13 08:29:26;;;;;;;5.90;2.50;;;;;;;;;;10415692;28;20606;-76
2023/05/13 08:34:26;;;;;;;7.55;3.33;;;;;;;;;;10423199;28;20495;-76
2023/05/13 08:39:27;;;;;;;8.90;3.93;;;;;;;;;;10470424;28;20470;-76
2023/05/13 08:44:28;;;;;;;7.75;3.30;;;;;;;;;;10470190;28;20036;-76
2023/05/13 08:49:31;;;;;;;10.98;3.45;;;;;;;;;;10451488;28;20064;-76
2023/05/13 08:54:31;;;;;;;5.57;3.28;;;;;;;;;;10469904;28;20372;-76
2023/05/13 08:59:32;;;;;;;8.07;3.72;;;;;;;;;;10469268;28;20029;-76
2023/05/13 09:04:36;;;;;;;5.93;3.08;;;;;;;;;;10469336;28;20020;-76
2023/05/13 09:09:36;;;;;;;7.00;2.97;;;;;;;;;;10468924;28;20038;-78
2023/05/13 09:14:37;;;;;;;11.43;3.70;;;;;;;;;;10468713;28;20482;-77
2023/05/13 09:19:37;;;;;;;8.18;3.33;;;;;;;;;;10468881;28;20483;-77
2023/05/13 09:24:38;;;;;;;5.38;2.80;;;;;;;;;;10467702;28;20024;-77
2023/05/13 09:29:38;;;;;;;6.60;3.20;;;;;;;;;;10442783;28;20131;-77
2023/05/13 09:34:38;;;;;;;4.43;2.67;;;;;;;;;;10427518;28;20501;-77
2023/05/13 09:39:40;;;;;;;4.97;2.70;;;;;;;;;;10463071;28;20388;-77
2023/05/13 09:44:41;;;;;;;4.75;2.95;;;;;;;;;;10450699;28;20042;-78
2023/05/13 09:49:42;;;;;;;6.00;3.10;;;;;;;;;;10450730;28;20526;-79
2023/05/13 09:54:43;;;;;;;6.90;3.55;;;;;;;;;;10468047;28;20391;-77
2023/05/13 09:59:43;;;;;;;5.85;3.05;;;;;;;;;;10467631;28;20032;-77
2023/05/13 10:04:43;;;;;;;7.60;3.42;;;;;;;;;;10467065;28;20035;-77
2023/05/13 10:09:44;;;;;;;5.87;3.27;;;;;;;;;;10467482;28;20094;-77
2023/05/13 10:14:45;;;;;;;5.72;3.58;;;;;;;;;;10467193;28;20509;-77
2023/05/13 10:19:47;;;;;;;8.93;3.00;;;;;;;;;;10426852;28;20033;-77
2023/05/13 10:24:48;;;;;;;7.90;3.03;;;;;;;;;;10443687;28;20402;-77
2023/05/13 10:29:52;;;;;;;12.27;4.35;;;;;;;;;;10466662;28;20012;-77
2023/05/13 10:34:55;;;;;;;7.95;3.17;;;;;;;;;;10465223;28;20403;-77
2023/05/13 10:39:58;;;;;;;8.80;3.50;;;;;;;;;;10466459;28;20066;-76
2023/05/13 10:44:59;;;;;;;10.15;3.65;;;;;;;;;;10422051;28;20499;-76
2023/05/13 10:50:04;;;;;;;6.23;3.37;;;;;;;;;;10415346;28;20049;-79
2023/05/13 10:55:13;;;;;;;5.88;3.70;;;;;;;;;;10391914;28;20427;-79
2023/05/13 11:00:15;;;;;;;9.77;4.75;;;;;;;;;;10392439;28;20491;-79
2023/05/13 11:05:18;;;;;;;6.78;4.03;;;;;;;;;;10395418;28;20025;-77
2023/05/13 11:10:31;;;;;;;7.90;3.90;;;;;;;;;;10401195;28;20477;-76
2023/05/13 11:15:44;;;;;;;10.70;5.22;;;;;;;;;;10391014;28;20025;-77
2023/05/13 11:20:52;;;;;;;7.07;4.47;;;;;;;;;;10396574;28;20043;-79
2023/05/13 11:26:08;;;;;;;14.95;4.50;;;;;;;;;;10400837;28;20389;-76
2023/05/13 11:31:16;;;;;;;7.72;4.38;;;;;;;;;;10404844;28;20120;-77
2023/05/13 11:36:16;;;;;;;5.97;4.20;;;;;;;;;;10388853;28;20458;-77
2023/05/13 11:41:16;;;;;;;8.90;3.85;;;;;;;;;;10403256;28;20059;-76
2023/05/13 11:46:21;;;;;;;7.63;4.07;;;;;;;;;;10402420;28;20037;-77
2023/05/13 11:51:22;;;;;;;10.02;4.68;;;;;;;;;;10392342;28;20220;-77
2023/05/13 11:56:25;;;;;;;8.93;4.55;;;;;;;;;;10387836;28;20025;-76
2023/05/13 12:01:25;;;;;;;7.72;3.78;;;;;;;;;;10395870;28;20040;-76
2023/05/13 12:06:25;;;;;;;6.22;3.35;;;;;;;;;;10419628;28;20886;-77
2023/05/13 12:11:26;;;;;;;8.05;3.97;;;;;;;;;;10448225;28;20036;-76
2023/05/13 12:16:27;;;;;;;9.93;4.55;;;;;;;;;;10447722;28;20016;-75
2023/05/13 12:21:29;;;;;;;6.03;3.65;;;;;;;;;;10423876;28;20032;-77
2023/05/13 12:26:30;;;;;;;4.65;3.55;;;;;;;;;;10449688;28;20399;-76
2023/05/13 12:31:30;;;;;;;8.50;4.07;;;;;;;;;;10455327;28;20025;-76
2023/05/13 12:36:35;;;;;;;9.13;3.75;;;;;;;;;;10429840;28;20025;-76
2023/05/13 12:41:36;;;;;;;6.25;3.55;;;;;;;;;;10445795;28;20466;-76
2023/05/13 12:46:37;;;;;;;6.15;3.90;;;;;;;;;;10447519;28;20032;-76
2023/05/13 12:51:37;;;;;;;6.47;4.10;;;;;;;;;;10453723;28;20053;-75
2023/05/13 12:56:39;;;;;;;6.03;3.77;;;;;;;;;;10435778;28;20474;-76
2023/05/13 13:01:40;;;;;;;7.40;3.50;;;;;;;;;;10447520;28;20029;-76
2023/05/13 13:06:41;;;;;;;8.27;3.83;;;;;;;;;;10451569;28;20082;-76
2023/05/13 13:11:41;;;;;;;8.85;3.53;;;;;;;;;;10446754;28;20058;-75
2023/05/13 13:16:42;;;;;;;9.27;3.87;;;;;;;;;;10456539;28;20020;-75
2023/05/13 13:21:42;;;;;;;5.53;3.70;;;;;;;;;;10445164;28;20021;-76
2023/05/13 13:26:42;;;;;;;4.90;3.50;;;;;;;;;;10443902;28;20464;-76
2023/05/13 13:31:43;;;;;;;12.30;4.83;;;;;;;;;;10439993;28;20025;-78
2023/05/13 13:36:46;;;;;;;5.23;3.37;;;;;;;;;;10439734;28;20725;-75
2023/05/13 13:41:46;;;;;;;9.02;4.70;;;;;;;;;;10456414;28;20031;-77
2023/05/13 13:46:46;;;;;;;7.60;3.37;;;;;;;;;;10446200;28;20387;-80
2023/05/13 13:51:47;;;;;;;7.75;3.33;;;;;;;;;;10415962;28;20044;-81
2023/05/13 13:56:47;;;;;;;6.15;3.05;;;;;;;;;;10446533;28;20380;-81
2023/05/13 14:01:47;;;;;;;10.02;4.82;;;;;;;;;;10444142;28;20475;-79
2023/05/13 14:06:48;;;;;;;6.70;3.07;;;;;;;;;;10449962;28;20569;-79
2023/05/13 14:11:49;;;;;;;6.43;4.22;;;;;;;;;;10442366;28;20146;-75
2023/05/13 14:16:49;;;;;;;6.82;3.22;;;;;;;;;;10424079;28;20388;-75
2023/05/13 14:21:49;;;;;;;5.43;3.13;;;;;;;;;;10400941;28;20041;-73
2023/05/13 14:26:50;;;;;;;5.60;2.65;;;;;;;;;;10443990;28;20116;-74
2023/05/13 14:31:50;;;;;;;5.00;3.20;;;;;;;;;;10454564;28;20020;-81
2023/05/13 14:36:51;;;;;;;6.47;3.10;;;;;;;;;;10462826;28;20480;-82
2023/05/13 14:41:51;;;;;;;6.55;3.20;;;;;;;;;;10464694;28;20031;-78
2023/05/13 14:46:51;;;;;;;5.55;3.00;;;;;;;;;;10464015;28;20177;-72
2023/05/13 14:51:52;;;;;;;6.85;3.15;;;;;;;;;;10449764;28;20061;-76
2023/05/13 14:56:52;;;;;;;3.07;2.27;;;;;;;;;;10426492;28;20025;-75
2023/05/13 15:01:52;;;;;;;4.18;2.40;;;;;;;;;;10462925;28;20390;-79
2023/05/13 15:06:56;;;;;;;6.80;2.08;;;;;;;;;;10445922;28;20518;-76
2023/05/13 15:11:56;;;;;;;3.38;2.50;;;;;;;;;;10424689;28;20025;-79
2023/05/13 15:16:56;;;;;;;4.50;2.55;;;;;;;;;;10424631;28;20479;-78
2023/05/13 15:21:57;;;;;;;5.73;2.30;;;;;;;;;;10383067;28;20021;-78
2023/05/13 15:26:57;;;;;;;4.73;2.63;;;;;;;;;;10401572;28;21154;-78
2023/05/13 15:31:57;;;;;;;8.10;2.20;;;;;;;;;;10396579;28;20038;-78
2023/05/13 15:36:58;;;;;;;3.92;2.17;;;;;;;;;;10395839;28;20139;-78
2023/05/13 15:41:58;;;;;;;8.85;2.13;;;;;;;;;;10403573;28;20477;-77
2023/05/13 15:46:58;;;;;;;7.00;2.53;;;;;;;;;;10399940;28;20017;-79
2023/05/13 15:51:59;;;;;;;5.05;2.53;;;;;;;;;;10403952;28;20045;-78
2023/05/13 15:56:59;;;;;;;6.70;2.50;;;;;;;;;;10405210;28;20120;-82
2023/05/13 16:02:00;;;;;;;6.35;1.80;;;;;;;;;;10402802;28;20036;-81
2023/05/13 16:07:00;;;;;;;7.67;1.83;;;;;;;;;;10395910;28;20521;-80
2023/05/13 16:12:01;;;;;;;4.53;2.30;;;;;;;;;;10385943;28;20087;-80
2023/05/13 16:17:02;;;;;;;4.93;2.30;;;;;;;;;;10398435;28;20777;-77
2023/05/13 16:22:32;;;;;;;4.30;2.03;;;;;;;;;;10404252;28;20031;-72
2023/05/13 16:27:33;;;;;;;6.05;2.28;;;;;;;;;;10384805;28;20107;-70
2023/05/13 16:32:33;;;;;;;3.58;2.20;;;;;;;;;;10391079;28;20430;-71
2023/05/13 16:37:34;;;;;;;4.27;2.20;;;;;;;;;;10408855;28;20040;-70
2023/05/13 16:42:34;;;;;;;4.18;2.55;;;;;;;;;;10412608;28;20028;-75
2023/05/13 16:47:35;;;;;;;4.85;2.70;;;;;;;;;;10413724;28;20506;-75
2023/05/13 16:52:35;;;;;;;4.25;2.20;;;;;;;;;;10410586;28;20037;-75
2023/05/13 16:57:36;;;;;;;4.57;2.33;;;;;;;;;;10390023;28;20028;-74
2023/05/13 17:02:39;;;;;;;5.45;2.35;;;;;;;;;;10415051;28;20040;-75
2023/05/13 17:07:43;;;;;;;3.42;2.42;;;;;;;;;;10413631;28;20372;-76
2023/05/13 17:12:44;;;;;;;5.35;2.55;;;;;;;;;;10404075;28;20036;-75
2023/05/13 17:17:44;;;;;;;5.50;2.50;;;;;;;;;;10414105;28;20348;-77
2023/05/13 17:22:46;;;;;;;4.40;2.80;;;;;;;;;;10415082;28;20029;-77
2023/05/13 17:27:46;;;;;;;3.88;2.25;;;;;;;;;;10410561;28;20036;-76
2023/05/13 17:32:46;;;;;;;6.45;2.58;;;;;;;;;;10411121;28;20033;-74
2023/05/13 17:37:46;;;;;;;11.33;2.90;;;;;;;;;;10398544;28;20420;-77
2023/05/13 17:42:47;;;;;;;4.22;2.65;;;;;;;;;;10409711;28;20033;-74
2023/05/13 17:47:47;;;;;;;9.77;3.00;;;;;;;;;;10410323;28;20067;-75
2023/05/13 17:52:48;;;;;;;6.53;2.90;;;;;;;;;;10412072;28;20411;-76
2023/05/13 17:57:48;;;;;;;6.47;2.80;;;;;;;;;;10410206;28;20421;-74
2023/05/13 18:02:48;;;;;;;4.28;2.25;;;;;;;;;;10412282;28;20681;-76
2023/05/13 18:07:48;;;;;;;5.60;2.28;;;;;;;;;;10410207;28;20040;-74
2023/05/13 18:12:50;;;;;;;3.13;2.30;;;;;;;;;;10409135;28;20025;-75
2023/05/13 18:17:53;;;;;;;10.18;2.83;;;;;;;;;;10410685;28;20037;-74
2023/05/13 18:22:53;;;;;;;5.60;2.63;;;;;;;;;;10418525;28;20562;-75
2023/05/13 18:27:53;;;;;;;4.13;2.80;;;;;;;;;;10384121;28;20044;-75
2023/05/13 18:32:54;;;;;;;5.85;2.63;;;;;;;;;;10409646;28;20033;-75
2023/05/13 18:37:54;;;;;;;6.60;2.93;;;;;;;;;;10395243;28;20074;-73
2023/05/13 18:42:54;;;;;;;4.53;2.70;;;;;;;;;;10408866;28;20067;-73
2023/05/13 18:47:54;;;;;;;4.70;2.67;;;;;;;;;;10406212;28;20048;-73
2023/05/13 18:52:55;;;;;;;9.13;3.10;;;;;;;;;;10412250;28;20045;-73
2023/05/13 18:57:55;;;;;;;6.80;2.80;;;;;;;;;;10408411;28;20099;-74
2023/05/13 19:02:55;;;;;;;6.40;2.72;;;;;;;;;;10406864;28;20037;-75
2023/05/13 19:07:56;;;;;;;5.22;3.45;;;;;;;;;;10402521;28;20037;-74
2023/05/13 19:12:56;;;;;;;8.00;3.00;;;;;;;;;;10407320;28;20048;-74
2023/05/13 19:17:56;;;;;;;6.90;3.50;;;;;;;;;;10406929;28;20276;-74
2023/05/13 19:22:56;;;;;;;6.90;3.15;;;;;;;;;;10410910;28;20064;-73
2023/05/13 19:27:57;;;;;;;10.85;3.50;;;;;;;;;;10391242;28;20440;-73
2023/05/13 19:32:57;;;;;;;6.33;3.20;;;;;;;;;;10388308;28;20035;-75
2023/05/13 19:37:58;;;;;;;9.00;3.58;;;;;;;;;;10403271;28;20473;-72
2023/05/13 19:42:58;;;;;;;5.82;3.53;;;;;;;;;;10408836;28;20040;-75
2023/05/13 19:47:58;;;;;;;7.22;3.15;;;;;;;;;;10408550;28;20041;-77
2023/05/13 19:52:58;;;;;;;5.57;3.22;;;;;;;;;;10417406;28;20115;-75
2023/05/13 19:57:59;;;;;;;5.50;3.00;;;;;;;;;;10418725;28;20028;-78
2023/05/13 20:02:59;;;;;;;10.77;3.23;;;;;;;;;;10397171;28;20692;-74
2023/05/13 20:08:00;;;;;;;4.35;2.63;;;;;;;;;;10416725;28;20115;-74
2023/05/13 20:13:02;;;;;;;5.33;3.30;;;;;;;;;;10400264;28;20033;-75
2023/05/13 20:18:03;;;;;;;6.05;3.25;;;;;;;;;;10408733;28;20264;-82
2023/05/13 20:23:03;;;;;;;5.97;3.47;;;;;;;;;;10423336;28;20035;-82
2023/05/13 20:28:03;;;;;;;12.18;2.70;;;;;;;;;;10418461;28;20017;-74
2023/05/13 20:33:03;;;;;;;4.80;2.75;;;;;;;;;;10417958;28;20420;-74
2023/05/13 20:38:04;;;;;;;6.20;3.00;;;;;;;;;;10419506;28;20448;-74
2023/05/13 20:43:04;;;;;;;7.28;2.63;;;;;;;;;;10418714;28;20504;-74
2023/05/13 20:48:05;;;;;;;5.22;3.25;;;;;;;;;;10400166;28;20540;-73
2023/05/13 20:53:06;;;;;;;5.97;3.17;;;;;;;;;;10399112;28;20033;-84
2023/05/13 20:58:06;;;;;;;5.90;2.92;;;;;;;;;;10423877;28;20042;-75
2023/05/13 21:03:06;;;;;;;9.77;3.20;;;;;;;;;;10425143;28;20097;-77
2023/05/13 21:08:06;;;;;;;4.45;2.65;;;;;;;;;;10427676;28;20399;-77
2023/05/13 21:13:07;;;;;;;6.32;2.78;;;;;;;;;;10421402;28;20029;-76
2023/05/13 21:18:07;;;;;;;7.18;3.00;;;;;;;;;;10445052;28;20036;-75
2023/05/13 21:23:07;;;;;;;6.47;3.07;;;;;;;;;;10453033;28;20104;-75
2023/05/13 21:28:07;;;;;;;7.72;2.70;;;;;;;;;;10450857;28;20412;-75
2023/05/13 21:33:08;;;;;;;4.93;2.72;;;;;;;;;;10466948;28;20063;-75
2023/05/13 21:38:08;;;;;;;7.97;2.92;;;;;;;;;;10448160;28;20586;-75
2023/05/13 21:43:08;;;;;;;7.65;2.50;;;;;;;;;;10433542;28;20021;-75
2023/05/13 21:48:09;;;;;;;2.90;2.15;;;;;;;;;;10465107;28;20075;-75
2023/05/13 21:53:09;;;;;;;4.15;2.50;;;;;;;;;;10429163;28;20128;-76
2023/05/13 21:58:09;;;;;;;4.22;2.40;;;;;;;;;;10424856;28;20017;-75
2023/05/13 22:03:11;;;;;;;7.23;2.57;;;;;;;;;;10449113;28;20086;-75
2023/05/13 22:08:11;;;;;;;4.80;2.17;;;;;;;;;;10467192;28;20021;-75
2023/05/13 22:13:11;;;;;;;3.20;2.13;;;;;;;;;;10448044;28;20419;-74
2023/05/13 22:18:12;;;;;;;2.83;2.13;;;;;;;;;;10466780;28;20016;-74
2023/05/13 22:23:13;;;;;;;5.13;2.80;;;;;;;;;;10466754;28;20025;-74
2023/05/13 22:28:13;;;;;;;4.57;2.60;;;;;;;;;;10466683;28;20368;-74
2023/05/13 22:33:13;;;;;;;4.83;2.90;;;;;;;;;;10430346;28;20017;-74
2023/05/13 22:38:14;;;;;;;5.90;2.55;;;;;;;;;;10436212;28;20019;-74
2023/05/13 22:43:14;;;;;;;5.55;3.05;;;;;;;;;;10428576;28;20082;-74
2023/05/13 22:48:14;;;;;;;5.77;2.27;;;;;;;;;;10465536;28;20032;-74
2023/05/13 22:53:16;;;;;;;4.73;2.00;;;;;;;;;;10465356;28;20101;-74
2023/05/13 22:58:17;;;;;;;6.20;2.35;;;;;;;;;;10465949;28;20541;-74
2023/05/13 23:03:17;;;;;;;3.28;2.53;;;;;;;;;;10447356;28;20356;-75
2023/05/13 23:08:18;;;;;;;4.32;2.55;;;;;;;;;;10415661;28;20025;-75
2023/05/13 23:13:18;;;;;;;4.07;2.50;;;;;;;;;;10422764;28;20483;-75
2023/05/13 23:18:18;;;;;;;2.95;2.20;;;;;;;;;;10454748;28;20455;-75
2023/05/13 23:23:19;;;;;;;4.57;2.70;;;;;;;;;;10465098;28;20032;-75
2023/05/13 23:28:19;;;;;;;3.70;2.65;;;;;;;;;;10465272;28;20826;-75
2023/05/13 23:33:19;;;;;;;3.90;2.60;;;;;;;;;;10409964;28;20025;-75
2023/05/13 23:38:20;;;;;;;7.27;3.87;;;;;;;;;;10414358;28;20024;-75
2023/05/13 23:43:20;;;;;;;5.88;3.08;;;;;;;;;;10464658;28;20110;-75
2023/05/13 23:48:20;;;;;;;4.53;2.50;;;;;;;;;;10461980;28;20049;-75
2023/05/13 23:53:21;;;;;;;10.67;4.50;;;;;;;;;;10427077;28;20029;-75
2023/05/13 23:58:21;;;;;;;8.38;2.65;;;;;;;;;;10447558;28;20454;-74
